Nearby METAR Reports

 

RPLL - Ninoy Aquino Int, Philippines
Distance from station: 0 19km
Updated: 08/14/2018 9:00pm
Partly cloudy
Partly cloudy
 Wind from SW
Wind: SW 9 km/h
Temperature: 27°C
Heat Index: 31°C
Dew Point: 24°C
Humidity: 84%
Barometer: 1007 hPa
Clouds: Partly cloudy
Visibility: 10 km
Cloud details: Few Clouds 701 m
Partly cloudy 3048 m
2018/08/14 13:00 RPLL 141300Z 23005KT 9999 FEW023 SCT100 27/24 Q1007 NOSIG RMK A2974
RPLB - Olongapo/Subic, Philippines
Distance from station: WNW 93km
Updated: 08/14/2018 9:00pm
Mostly cloudy
Mostly cloudy
 Wind from SSW
Wind: SSW 19 km/h, Gust: 37 km/h
Temperature: 28°C
Heat Index: 33°C
Dew Point: 26°C
Humidity: 89%
Barometer: 1007 hPa
Clouds: Mostly cloudy
Visibility: 9 km
Cloud details: Mostly cloudy 549 m
2018/08/14 13:00 RPLB 141300Z 21010G20KT 9000 BKN018 28/26 Q1007 RERA RMK A2974
 
RPLC - Angeles/Pampanga, Philippines
Distance from station: NNW 101km
Updated: 08/14/2018 9:00pm
Light rain, Overcast
Light rain, Overcast
 Wind from NE
Wind: NE 4 km/h
Temperature: 25°C
Dew Point: 24°C
Humidity: 94%
Barometer: 1007 hPa
Summary: Light rain
Clouds: Overcast
Visibility: 8 km
Cloud details: Partly cloudy 549 m
Overcast 2743 m
2018/08/14 13:00 RPLC 141300Z 04002KT 8000 -RA SCT018 OVC090 25/24 Q1007 RMK A2974
RPLI - Laoag Intl(Ph-Ar, Philippines
Distance from station: N 427km
Updated: 08/14/2018 8:00pm
NOT Current
Light thunderstorm, Rain, Overcast
Light thunderstorm, Rain, Overcast
 Wind from SSW
Wind: SSW 15 km/h, Gust: 37 km/h
Temperature: 26°C
Dew Point: 25°C
Humidity: 94%
Barometer: 1004 hPa
Summary: Light thunderstorm, Rain
Clouds: Overcast
Visibility: 4 km
Cloud details: Few Clouds 549 m
Partly cloudy 579 m
Overcast 2743 m
2018/08/14 12:00 RPLI 141200Z 21008G20KT 4000 -TSRA FEW018 SCT019 OVC090 26/25 Q1004 RETS RMK A2965 CB SSW-W
 
RPVM - Mactan-Cebu, Philippines
Distance from station: SE 553km
Updated: 08/14/2018 9:00pm
Partly cloudy
Partly cloudy
 Wind from W
Wind: W 9 km/h
Temperature: 28°C
Heat Index: 32°C
Dew Point: 24°C
Humidity: 79%
Barometer: 1010 hPa
Clouds: Partly cloudy
Visibility: 10 km
Cloud details: Few Clouds 610 m
Partly cloudy 9144 m
2018/08/14 13:00 RPVM 141300Z 26005KT 9999 FEW020 SCT300 28/24 Q1010 RMK A2983
RPVP - Puerto Princesa, Philippines
Distance from station: SE 553km
Updated: 08/14/2018 8:00pm
NOT Current
Partly cloudy
Partly cloudy
 Wind from S
Wind: S 11 km/h
Temperature: 29°C
Heat Index: 36°C
Dew Point: 26°C
Humidity: 84%
Barometer: 1009 hPa
Clouds: Partly cloudy
Visibility: 10 km
Cloud details: Few Clouds 610 m
Partly cloudy 7315 m
2018/08/14 12:00 RPVP 141200Z 18006KT 9999 FEW020 SCT240 29/26 Q1009 RMK A2980
 
RPMD - Davao City, Philippines
Distance from station: SE 553km
Updated: 08/14/2018 9:00pm
Partly cloudy
Partly cloudy
 Wind from calm
Wind: Calm
Temperature: 28°C
Heat Index: 32°C
Dew Point: 25°C
Humidity: 84%
Barometer: 1010 hPa
Clouds: Partly cloudy
Visibility: 10 km
Cloud details: Few Clouds 488 m
Partly cloudy 8839 m
2018/08/14 13:00 RPMD 141300Z 00000KT 9999 FEW016 SCT290 28/25 Q1010 RMK A2983
RPMR - General Santos City, Philippines
Distance from station: SE 553km
Updated: 08/14/2018 5:00pm
NOT Current
Partly cloudy
Partly cloudy
 Wind from SE
Wind: SE 15 km/h
Temperature: 30°C
Heat Index: 34°C
Dew Point: 23°C
Humidity: 66%
Barometer: 1009 hPa
Clouds: Partly cloudy
Visibility: 10 km
Cloud details: Few Clouds 549 m
Partly cloudy 7620 m
2018/08/14 09:00 RPMR 140900Z 14008KT 9999 FEW018 SCT250 30/23 Q1009 NOSIG RMK A2980
 
RPMZ - Zamboanga, Philippines
Distance from station: NE 14km
Updated: 08/14/2018 8:00pm
NOT Current
Mostly cloudy
Mostly cloudy
 Wind from NNW
Wind: NNW 4 km/h
Temperature: 27°C
Heat Index: 31°C
Dew Point: 24°C
Humidity: 84%
Barometer: 1008 hPa
Clouds: Mostly cloudy
Visibility: 10 km
Cloud details: Few Clouds 488 m
Few Clouds 518 m
Mostly cloudy 2743 m
2018/08/14 12:00 RPMZ 141200Z 34002KT 9999 FEW016CB FEW017 BKN090 27/24 Q1008 RMK A2977 CB NE
www.000webhost.com